Terminal Aerodrome Forecast
Issued by NWS Shreveport, LA

Home | Current Version | Previous Version | Text Only | Print | Product List | Glossary On
Versions: 1 2 3 4 5 6 7 8 9 10 11 12
000
FTUS44 KSHV 022327
TAFTXK
TAF
KTXK 022327Z 0300/0324 17004KT P6SM SCT140 SCT250
     FM031500 16006KT P6SM SCT040 SCT100 SCT250
     FM031800 16006KT P6SM SCT050 SCT120 SCT250=

USA.gov is the U.S. government's official web portal to all federal, state and local government web resources and services.